sensor_id;sensor_type;location;lat;lon;timestamp;temperature;humidity
30308;DHT22;17114;52.314;8.910;2023-04-24T00:00:40;11.90;99.90
30308;DHT22;17114;52.314;8.910;2023-04-24T00:03:07;11.80;99.90
30308;DHT22;17114;52.314;8.910;2023-04-24T00:05:35;11.80;99.90
30308;DHT22;17114;52.314;8.910;2023-04-24T00:08:02;11.80;99.90
30308;DHT22;17114;52.314;8.910;2023-04-24T00:10:29;11.70;99.90
30308;DHT22;17114;52.314;8.910;2023-04-24T00:12:56;11.70;99.90
30308;DHT22;17114;52.314;8.910;2023-04-24T00:15:23;11.60;99.90
30308;DHT22;17114;52.314;8.910;2023-04-24T00:17:50;11.80;99.90
30308;DHT22;17114;52.314;8.910;2023-04-24T00:20:18;11.80;99.90
30308;DHT22;17114;52.314;8.910;2023-04-24T00:22:45;11.80;99.90
30308;DHT22;17114;52.314;8.910;2023-04-24T00:25:13;11.80;99.90
30308;DHT22;17114;52.314;8.910;2023-04-24T00:27:39;11.80;99.90
30308;DHT22;17114;52.314;8.910;2023-04-24T00:30:07;11.80;99.90
30308;DHT22;17114;52.314;8.910;2023-04-24T00:32:34;11.70;99.90
30308;DHT22;17114;52.314;8.910;2023-04-24T00:35:01;11.70;99.90
30308;DHT22;17114;52.314;8.910;2023-04-24T00:37:28;11.70;99.90
30308;DHT22;17114;52.314;8.910;2023-04-24T00:39:55;11.60;99.90
30308;DHT22;17114;52.314;8.910;2023-04-24T00:42:22;11.60;99.90
30308;DHT22;17114;52.314;8.910;2023-04-24T00:44:50;11.50;99.90
30308;DHT22;17114;52.314;8.910;2023-04-24T00:47:19;11.50;99.90
30308;DHT22;17114;52.314;8.910;2023-04-24T00:49:46;11.40;99.90
30308;DHT22;17114;52.314;8.910;2023-04-24T00:52:13;11.30;99.90
30308;DHT22;17114;52.314;8.910;2023-04-24T00:54:44;11.30;99.90
30308;DHT22;17114;52.314;8.910;2023-04-24T00:57:13;11.30;99.90
30308;DHT22;17114;52.314;8.910;2023-04-24T00:59:42;11.30;99.90
30308;DHT22;17114;52.314;8.910;2023-04-24T01:02:10;11.20;99.90
30308;DHT22;17114;52.314;8.910;2023-04-24T01:04:38;11.20;99.90
30308;DHT22;17114;52.314;8.910;2023-04-24T01:07:05;11.20;99.90
30308;DHT22;17114;52.314;8.910;2023-04-24T01:09:38;11.10;99.90
30308;DHT22;17114;52.314;8.910;2023-04-24T01:12:06;11.10;99.90
30308;DHT22;17114;52.314;8.910;2023-04-24T01:14:34;11.00;99.90
30308;DHT22;17114;52.314;8.910;2023-04-24T01:17:01;11.00;99.90
30308;DHT22;17114;52.314;8.910;2023-04-24T01:19:28;10.90;99.90
30308;DHT22;17114;52.314;8.910;2023-04-24T01:21:58;10.90;99.90
30308;DHT22;17114;52.314;8.910;2023-04-24T01:24:25;10.80;99.90
30308;DHT22;17114;52.314;8.910;2023-04-24T01:26:52;10.80;99.90
30308;DHT22;17114;52.314;8.910;2023-04-24T01:29:22;10.80;99.90
30308;DHT22;17114;52.314;8.910;2023-04-24T01:31:49;10.70;99.90
30308;DHT22;17114;52.314;8.910;2023-04-24T01:34:17;10.70;99.90
30308;DHT22;17114;52.314;8.910;2023-04-24T01:36:45;10.70;99.90
30308;DHT22;17114;52.314;8.910;2023-04-24T01:39:13;10.70;99.90
30308;DHT22;17114;52.314;8.910;2023-04-24T01:41:40;10.80;99.90
30308;DHT22;17114;52.314;8.910;2023-04-24T01:44:07;10.80;99.90
30308;DHT22;17114;52.314;8.910;2023-04-24T01:46:34;10.90;99.90
30308;DHT22;17114;52.314;8.910;2023-04-24T01:49:02;10.80;99.90
30308;DHT22;17114;52.314;8.910;2023-04-24T01:51:32;11.00;99.90
30308;DHT22;17114;52.314;8.910;2023-04-24T01:53:59;11.10;99.90
30308;DHT22;17114;52.314;8.910;2023-04-24T01:56:29;11.10;99.90
30308;DHT22;17114;52.314;8.910;2023-04-24T01:58:57;11.00;99.90
30308;DHT22;17114;52.314;8.910;2023-04-24T02:01:24;11.00;99.90
30308;DHT22;17114;52.314;8.910;2023-04-24T02:03:52;11.00;99.90
30308;DHT22;17114;52.314;8.910;2023-04-24T02:06:19;11.00;99.90
30308;DHT22;17114;52.314;8.910;2023-04-24T02:08:46;11.00;99.90
30308;DHT22;17114;52.314;8.910;2023-04-24T02:11:13;11.00;99.90
30308;DHT22;17114;52.314;8.910;2023-04-24T02:13:40;10.90;99.90
30308;DHT22;17114;52.314;8.910;2023-04-24T02:16:07;10.90;99.90
30308;DHT22;17114;52.314;8.910;2023-04-24T02:18:33;10.80;99.90
30308;DHT22;17114;52.314;8.910;2023-04-24T02:21:00;10.80;99.90
30308;DHT22;17114;52.314;8.910;2023-04-24T02:23:27;10.80;99.90
30308;DHT22;17114;52.314;8.910;2023-04-24T02:25:54;10.90;99.90
30308;DHT22;17114;52.314;8.910;2023-04-24T02:28:22;10.80;99.90
30308;DHT22;17114;52.314;8.910;2023-04-24T02:30:50;10.90;99.90
30308;DHT22;17114;52.314;8.910;2023-04-24T02:33:17;10.90;99.90
30308;DHT22;17114;52.314;8.910;2023-04-24T02:35:44;10.90;99.90
30308;DHT22;17114;52.314;8.910;2023-04-24T02:38:11;10.90;99.90
30308;DHT22;17114;52.314;8.910;2023-04-24T02:40:38;10.90;99.90
30308;DHT22;17114;52.314;8.910;2023-04-24T02:43:05;10.90;99.90
30308;DHT22;17114;52.314;8.910;2023-04-24T02:45:32;10.80;99.90
30308;DHT22;17114;52.314;8.910;2023-04-24T02:48:01;10.80;99.90
30308;DHT22;17114;52.314;8.910;2023-04-24T02:50:28;10.70;99.90
30308;DHT22;17114;52.314;8.910;2023-04-24T02:52:55;10.70;99.90
30308;DHT22;17114;52.314;8.910;2023-04-24T02:55:22;10.60;99.90
30308;DHT22;17114;52.314;8.910;2023-04-24T02:57:48;10.50;99.90
30308;DHT22;17114;52.314;8.910;2023-04-24T03:00:15;10.50;99.90
30308;DHT22;17114;52.314;8.910;2023-04-24T03:02:42;10.40;99.90
30308;DHT22;17114;52.314;8.910;2023-04-24T03:05:10;10.40;99.90
30308;DHT22;17114;52.314;8.910;2023-04-24T03:07:38;10.40;99.90
30308;DHT22;17114;52.314;8.910;2023-04-24T03:10:06;10.40;99.90
30308;DHT22;17114;52.314;8.910;2023-04-24T03:12:33;10.40;99.90
30308;DHT22;17114;52.314;8.910;2023-04-24T03:15:00;10.40;99.90
30308;DHT22;17114;52.314;8.910;2023-04-24T03:17:27;10.40;99.90
30308;DHT22;17114;52.314;8.910;2023-04-24T03:19:54;10.40;99.90
30308;DHT22;17114;52.314;8.910;2023-04-24T03:22:21;10.30;99.90
30308;DHT22;17114;52.314;8.910;2023-04-24T03:24:48;10.20;99.90
30308;DHT22;17114;52.314;8.910;2023-04-24T03:27:15;10.10;99.90
30308;DHT22;17114;52.314;8.910;2023-04-24T03:29:42;10.10;99.90
30308;DHT22;17114;52.314;8.910;2023-04-24T03:32:09;10.20;99.90
30308;DHT22;17114;52.314;8.910;2023-04-24T03:34:36;10.20;99.90
30308;DHT22;17114;52.314;8.910;2023-04-24T03:37:03;10.10;99.90
30308;DHT22;17114;52.314;8.910;2023-04-24T03:39:30;10.30;99.90
30308;DHT22;17114;52.314;8.910;2023-04-24T03:41:57;10.10;99.90
30308;DHT22;17114;52.314;8.910;2023-04-24T03:44:23;10.10;99.90
30308;DHT22;17114;52.314;8.910;2023-04-24T03:46:50;10.10;99.90
30308;DHT22;17114;52.314;8.910;2023-04-24T03:49:17;10.20;99.90
30308;DHT22;17114;52.314;8.910;2023-04-24T03:51:44;10.20;99.90
30308;DHT22;17114;52.314;8.910;2023-04-24T03:54:11;10.30;99.90
30308;DHT22;17114;52.314;8.910;2023-04-24T03:56:38;10.30;99.90
30308;DHT22;17114;52.314;8.910;2023-04-24T03:59:05;10.30;99.90
30308;DHT22;17114;52.314;8.910;2023-04-24T04:01:32;10.40;99.90
30308;DHT22;17114;52.314;8.910;2023-04-24T04:03:59;10.40;99.90
30308;DHT22;17114;52.314;8.910;2023-04-24T04:06:26;10.50;99.90
30308;DHT22;17114;52.314;8.910;2023-04-24T04:08:53;10.50;99.90
30308;DHT22;17114;52.314;8.910;2023-04-24T04:11:20;10.60;99.90
30308;DHT22;17114;52.314;8.910;2023-04-24T04:13:47;10.70;99.90
30308;DHT22;17114;52.314;8.910;2023-04-24T04:16:14;10.70;99.90
30308;DHT22;17114;52.314;8.910;2023-04-24T04:18:44;10.70;99.90
30308;DHT22;17114;52.314;8.910;2023-04-24T04:21:11;10.70;99.90
30308;DHT22;17114;52.314;8.910;2023-04-24T04:23:38;10.70;99.90
30308;DHT22;17114;52.314;8.910;2023-04-24T04:26:06;10.70;99.90
30308;DHT22;17114;52.314;8.910;2023-04-24T04:28:34;10.70;99.90
30308;DHT22;17114;52.314;8.910;2023-04-24T04:31:01;10.80;99.90
30308;DHT22;17114;52.314;8.910;2023-04-24T04:33:28;10.70;99.90
30308;DHT22;17114;52.314;8.910;2023-04-24T04:35:55;10.70;99.90
30308;DHT22;17114;52.314;8.910;2023-04-24T04:38:23;10.60;99.90
30308;DHT22;17114;52.314;8.910;2023-04-24T04:40:50;10.50;99.90
30308;DHT22;17114;52.314;8.910;2023-04-24T04:43:17;10.50;99.90
30308;DHT22;17114;52.314;8.910;2023-04-24T04:45:44;10.40;99.90
30308;DHT22;17114;52.314;8.910;2023-04-24T04:48:12;10.40;99.90
30308;DHT22;17114;52.314;8.910;2023-04-24T04:50:40;10.40;99.90
30308;DHT22;17114;52.314;8.910;2023-04-24T04:53:07;10.40;99.90
30308;DHT22;17114;52.314;8.910;2023-04-24T04:55:34;10.50;99.90
30308;DHT22;17114;52.314;8.910;2023-04-24T04:58:01;10.50;99.90
30308;DHT22;17114;52.314;8.910;2023-04-24T05:00:28;10.70;99.90
30308;DHT22;17114;52.314;8.910;2023-04-24T05:03:02;10.60;99.90
30308;DHT22;17114;52.314;8.910;2023-04-24T05:05:45;10.70;99.90
30308;DHT22;17114;52.314;8.910;2023-04-24T05:08:12;10.70;99.90
30308;DHT22;17114;52.314;8.910;2023-04-24T05:10:52;10.70;99.90
30308;DHT22;17114;52.314;8.910;2023-04-24T05:13:19;10.70;99.90
30308;DHT22;17114;52.314;8.910;2023-04-24T05:15:58;10.70;99.90
30308;DHT22;17114;52.314;8.910;2023-04-24T05:18:25;10.70;99.90
30308;DHT22;17114;52.314;8.910;2023-04-24T05:20:52;10.70;99.90
30308;DHT22;17114;52.314;8.910;2023-04-24T05:23:19;10.70;99.90
30308;DHT22;17114;52.314;8.910;2023-04-24T05:25:46;10.70;99.90
30308;DHT22;17114;52.314;8.910;2023-04-24T05:28:13;10.80;99.90
30308;DHT22;17114;52.314;8.910;2023-04-24T05:30:40;10.80;99.90
30308;DHT22;17114;52.314;8.910;2023-04-24T05:33:07;10.80;99.90
30308;DHT22;17114;52.314;8.910;2023-04-24T05:35:35;10.80;99.90
30308;DHT22;17114;52.314;8.910;2023-04-24T05:38:02;10.80;99.90
30308;DHT22;17114;52.314;8.910;2023-04-24T05:40:29;10.70;99.90
30308;DHT22;17114;52.314;8.910;2023-04-24T05:42:56;10.70;99.90
30308;DHT22;17114;52.314;8.910;2023-04-24T05:45:23;10.60;99.90
30308;DHT22;17114;52.314;8.910;2023-04-24T05:47:50;10.40;99.90
30308;DHT22;17114;52.314;8.910;2023-04-24T05:50:19;10.40;99.90
30308;DHT22;17114;52.314;8.910;2023-04-24T05:52:46;10.30;99.90
30308;DHT22;17114;52.314;8.910;2023-04-24T05:55:13;10.30;99.90
30308;DHT22;17114;52.314;8.910;2023-04-24T05:57:40;10.20;99.90
30308;DHT22;17114;52.314;8.910;2023-04-24T06:00:07;10.30;99.90
30308;DHT22;17114;52.314;8.910;2023-04-24T06:02:35;10.30;99.90
30308;DHT22;17114;52.314;8.910;2023-04-24T06:05:02;10.30;99.90
30308;DHT22;17114;52.314;8.910;2023-04-24T06:07:30;10.30;99.90
30308;DHT22;17114;52.314;8.910;2023-04-24T06:09:57;10.30;99.90
30308;DHT22;17114;52.314;8.910;2023-04-24T06:12:24;10.30;99.90
30308;DHT22;17114;52.314;8.910;2023-04-24T06:14:52;10.40;99.90
30308;DHT22;17114;52.314;8.910;2023-04-24T06:17:19;10.50;99.90
30308;DHT22;17114;52.314;8.910;2023-04-24T06:19:46;10.50;99.90
30308;DHT22;17114;52.314;8.910;2023-04-24T06:22:13;10.50;99.90
30308;DHT22;17114;52.314;8.910;2023-04-24T06:24:40;10.40;99.90
30308;DHT22;17114;52.314;8.910;2023-04-24T06:27:08;10.40;99.90
30308;DHT22;17114;52.314;8.910;2023-04-24T06:29:35;10.50;99.90
30308;DHT22;17114;52.314;8.910;2023-04-24T06:32:02;10.50;99.90
30308;DHT22;17114;52.314;8.910;2023-04-24T06:34:29;10.60;99.90
30308;DHT22;17114;52.314;8.910;2023-04-24T06:36:58;10.70;99.90
30308;DHT22;17114;52.314;8.910;2023-04-24T06:39:24;10.60;99.90
30308;DHT22;17114;52.314;8.910;2023-04-24T06:41:51;10.60;99.90
30308;DHT22;17114;52.314;8.910;2023-04-24T06:44:18;10.60;99.90
30308;DHT22;17114;52.314;8.910;2023-04-24T06:46:46;10.60;99.90
30308;DHT22;17114;52.314;8.910;2023-04-24T06:49:13;10.50;99.90
30308;DHT22;17114;52.314;8.910;2023-04-24T06:51:42;10.50;99.90
30308;DHT22;17114;52.314;8.910;2023-04-24T06:54:10;10.50;99.90
30308;DHT22;17114;52.314;8.910;2023-04-24T06:56:37;10.40;99.90
30308;DHT22;17114;52.314;8.910;2023-04-24T06:59:04;10.40;99.90
30308;DHT22;17114;52.314;8.910;2023-04-24T07:01:31;10.50;99.90
30308;DHT22;17114;52.314;8.910;2023-04-24T07:03:58;10.50;99.90
30308;DHT22;17114;52.314;8.910;2023-04-24T07:06:26;10.50;99.90
30308;DHT22;17114;52.314;8.910;2023-04-24T07:08:54;10.80;99.90
30308;DHT22;17114;52.314;8.910;2023-04-24T07:11:21;10.80;99.90
30308;DHT22;17114;52.314;8.910;2023-04-24T07:13:48;10.80;99.90
30308;DHT22;17114;52.314;8.910;2023-04-24T07:16:15;10.80;99.90
30308;DHT22;17114;52.314;8.910;2023-04-24T07:18:43;10.80;99.90
30308;DHT22;17114;52.314;8.910;2023-04-24T07:21:09;10.70;99.90
30308;DHT22;17114;52.314;8.910;2023-04-24T07:23:37;10.70;99.90
30308;DHT22;17114;52.314;8.910;2023-04-24T07:26:04;10.70;99.90
30308;DHT22;17114;52.314;8.910;2023-04-24T07:28:31;10.60;99.90
30308;DHT22;17114;52.314;8.910;2023-04-24T07:30:58;10.70;99.90
30308;DHT22;17114;52.314;8.910;2023-04-24T07:33:26;10.70;99.90
30308;DHT22;17114;52.314;8.910;2023-04-24T07:35:53;10.70;99.90
30308;DHT22;17114;52.314;8.910;2023-04-24T07:38:21;10.70;99.90
30308;DHT22;17114;52.314;8.910;2023-04-24T07:40:49;10.70;99.90
30308;DHT22;17114;52.314;8.910;2023-04-24T07:43:16;10.60;99.90
30308;DHT22;17114;52.314;8.910;2023-04-24T07:45:43;10.60;99.90
30308;DHT22;17114;52.314;8.910;2023-04-24T07:48:10;10.70;99.90
30308;DHT22;17114;52.314;8.910;2023-04-24T07:50:37;10.70;99.90
30308;DHT22;17114;52.314;8.910;2023-04-24T07:53:04;10.70;99.90
30308;DHT22;17114;52.314;8.910;2023-04-24T07:55:32;10.80;99.90
30308;DHT22;17114;52.314;8.910;2023-04-24T07:57:58;10.80;99.90
30308;DHT22;17114;52.314;8.910;2023-04-24T08:00:26;10.80;99.90
30308;DHT22;17114;52.314;8.910;2023-04-24T08:02:53;10.70;99.90
30308;DHT22;17114;52.314;8.910;2023-04-24T08:05:20;10.70;99.90
30308;DHT22;17114;52.314;8.910;2023-04-24T08:07:47;10.70;99.90
30308;DHT22;17114;52.314;8.910;2023-04-24T08:10:16;10.70;99.90
30308;DHT22;17114;52.314;8.910;2023-04-24T08:12:44;10.80;99.90
30308;DHT22;17114;52.314;8.910;2023-04-24T08:15:10;10.80;99.90
30308;DHT22;17114;52.314;8.910;2023-04-24T08:17:37;10.90;99.90
30308;DHT22;17114;52.314;8.910;2023-04-24T08:20:05;11.10;99.90
30308;DHT22;17114;52.314;8.910;2023-04-24T08:22:36;11.20;99.90
30308;DHT22;17114;52.314;8.910;2023-04-24T08:25:03;11.30;99.90
30308;DHT22;17114;52.314;8.910;2023-04-24T08:27:31;11.70;99.90
30308;DHT22;17114;52.314;8.910;2023-04-24T08:30:00;11.90;99.90
30308;DHT22;17114;52.314;8.910;2023-04-24T08:32:28;12.00;99.90
30308;DHT22;17114;52.314;8.910;2023-04-24T08:34:56;12.10;99.90
30308;DHT22;17114;52.314;8.910;2023-04-24T08:37:23;12.00;99.90
30308;DHT22;17114;52.314;8.910;2023-04-24T08:39:50;12.00;99.90
30308;DHT22;17114;52.314;8.910;2023-04-24T08:42:18;11.90;99.90
30308;DHT22;17114;52.314;8.910;2023-04-24T08:44:46;11.70;99.90
30308;DHT22;17114;52.314;8.910;2023-04-24T08:47:15;11.60;99.90
30308;DHT22;17114;52.314;8.910;2023-04-24T08:49:43;11.50;99.90
30308;DHT22;17114;52.314;8.910;2023-04-24T08:52:10;11.30;99.90
30308;DHT22;17114;52.314;8.910;2023-04-24T08:54:39;11.30;99.90
30308;DHT22;17114;52.314;8.910;2023-04-24T08:57:07;11.20;99.90
30308;DHT22;17114;52.314;8.910;2023-04-24T08:59:36;11.10;99.90
30308;DHT22;17114;52.314;8.910;2023-04-24T09:02:04;11.10;99.90
30308;DHT22;17114;52.314;8.910;2023-04-24T09:04:33;11.10;99.90
30308;DHT22;17114;52.314;8.910;2023-04-24T09:07:01;11.00;99.90
30308;DHT22;17114;52.314;8.910;2023-04-24T09:09:30;11.20;99.90
30308;DHT22;17114;52.314;8.910;2023-04-24T09:11:58;11.30;99.90
30308;DHT22;17114;52.314;8.910;2023-04-24T09:14:26;11.40;99.90
30308;DHT22;17114;52.314;8.910;2023-04-24T09:16:54;11.30;99.90
30308;DHT22;17114;52.314;8.910;2023-04-24T09:19:21;11.40;99.90
30308;DHT22;17114;52.314;8.910;2023-04-24T09:21:49;11.20;99.90
30308;DHT22;17114;52.314;8.910;2023-04-24T09:24:18;11.10;99.90
30308;DHT22;17114;52.314;8.910;2023-04-24T09:26:47;11.20;99.90
30308;DHT22;17114;52.314;8.910;2023-04-24T09:29:18;11.50;99.90
30308;DHT22;17114;52.314;8.910;2023-04-24T09:31:46;12.00;99.90
30308;DHT22;17114;52.314;8.910;2023-04-24T09:34:13;12.40;99.90
30308;DHT22;17114;52.314;8.910;2023-04-24T09:36:42;12.70;99.90
30308;DHT22;17114;52.314;8.910;2023-04-24T09:39:11;12.80;99.90
30308;DHT22;17114;52.314;8.910;2023-04-24T09:41:55;12.80;99.90
30308;DHT22;17114;52.314;8.910;2023-04-24T09:44:27;12.50;99.90
30308;DHT22;17114;52.314;8.910;2023-04-24T09:46:57;12.30;99.90
30308;DHT22;17114;52.314;8.910;2023-04-24T09:49:25;12.00;99.90
30308;DHT22;17114;52.314;8.910;2023-04-24T09:52:11;11.90;99.90
30308;DHT22;17114;52.314;8.910;2023-04-24T09:54:39;11.80;99.90
30308;DHT22;17114;52.314;8.910;2023-04-24T09:57:09;11.60;99.90
30308;DHT22;17114;52.314;8.910;2023-04-24T09:59:42;11.40;99.90
30308;DHT22;17114;52.314;8.910;2023-04-24T10:02:20;11.20;99.90
30308;DHT22;17114;52.314;8.910;2023-04-24T10:04:57;11.10;99.90
30308;DHT22;17114;52.314;8.910;2023-04-24T10:07:26;11.10;99.90
30308;DHT22;17114;52.314;8.910;2023-04-24T10:09:54;11.20;99.90
30308;DHT22;17114;52.314;8.910;2023-04-24T10:12:21;11.40;99.90
30308;DHT22;17114;52.314;8.910;2023-04-24T10:14:49;11.50;99.90
30308;DHT22;17114;52.314;8.910;2023-04-24T10:17:17;11.50;99.90
30308;DHT22;17114;52.314;8.910;2023-04-24T10:19:45;11.50;99.90
30308;DHT22;17114;52.314;8.910;2023-04-24T10:22:14;11.50;99.90
30308;DHT22;17114;52.314;8.910;2023-04-24T10:24:43;11.40;99.90
30308;DHT22;17114;52.314;8.910;2023-04-24T10:27:11;11.30;99.90
30308;DHT22;17114;52.314;8.910;2023-04-24T10:29:40;11.30;99.90
30308;DHT22;17114;52.314;8.910;2023-04-24T10:32:07;11.20;99.90
30308;DHT22;17114;52.314;8.910;2023-04-24T10:34:36;11.10;99.90
30308;DHT22;17114;52.314;8.910;2023-04-24T10:37:03;11.10;99.90
30308;DHT22;17114;52.314;8.910;2023-04-24T10:39:30;11.20;99.90
30308;DHT22;17114;52.314;8.910;2023-04-24T10:42:00;11.00;99.90
30308;DHT22;17114;52.314;8.910;2023-04-24T10:44:36;11.20;99.90
30308;DHT22;17114;52.314;8.910;2023-04-24T10:47:03;11.10;99.90
30308;DHT22;17114;52.314;8.910;2023-04-24T10:49:31;11.20;99.90
30308;DHT22;17114;52.314;8.910;2023-04-24T10:52:04;11.30;99.90
30308;DHT22;17114;52.314;8.910;2023-04-24T10:54:34;11.40;99.90
30308;DHT22;17114;52.314;8.910;2023-04-24T10:59:52;12.00;99.90
30308;DHT22;17114;52.314;8.910;2023-04-24T11:02:42;12.10;99.90
30308;DHT22;17114;52.314;8.910;2023-04-24T11:05:17;11.90;99.90
30308;DHT22;17114;52.314;8.910;2023-04-24T11:08:14;11.80;99.90
30308;DHT22;17114;52.314;8.910;2023-04-24T11:10:47;11.90;99.90
30308;DHT22;17114;52.314;8.910;2023-04-24T11:13:25;11.90;99.90
30308;DHT22;17114;52.314;8.910;2023-04-24T11:16:14;12.00;99.90
30308;DHT22;17114;52.314;8.910;2023-04-24T11:18:44;12.00;99.90
30308;DHT22;17114;52.314;8.910;2023-04-24T11:21:18;11.70;99.90
30308;DHT22;17114;52.314;8.910;2023-04-24T11:23:45;11.60;99.90
30308;DHT22;17114;52.314;8.910;2023-04-24T11:26:23;11.20;99.90
30308;DHT22;17114;52.314;8.910;2023-04-24T11:29:08;10.90;99.90
30308;DHT22;17114;52.314;8.910;2023-04-24T11:31:44;10.80;99.90
30308;DHT22;17114;52.314;8.910;2023-04-24T11:34:16;10.70;99.90
30308;DHT22;17114;52.314;8.910;2023-04-24T11:36:47;10.60;99.90
30308;DHT22;17114;52.314;8.910;2023-04-24T11:39:15;10.80;99.90
30308;DHT22;17114;52.314;8.910;2023-04-24T11:41:41;10.80;99.90
30308;DHT22;17114;52.314;8.910;2023-04-24T11:44:09;10.80;99.90
30308;DHT22;17114;52.314;8.910;2023-04-24T11:46:38;10.70;99.90
30308;DHT22;17114;52.314;8.910;2023-04-24T11:49:08;10.60;99.90
30308;DHT22;17114;52.314;8.910;2023-04-24T11:51:35;10.50;99.90
30308;DHT22;17114;52.314;8.910;2023-04-24T11:54:18;10.40;99.90
30308;DHT22;17114;52.314;8.910;2023-04-24T11:56:46;10.10;99.90
30308;DHT22;17114;52.314;8.910;2023-04-24T11:59:14;10.10;99.90
30308;DHT22;17114;52.314;8.910;2023-04-24T12:01:48;10.10;99.90
30308;DHT22;17114;52.314;8.910;2023-04-24T12:04:17;10.00;99.90
30308;DHT22;17114;52.314;8.910;2023-04-24T12:07:01;9.90;99.90
30308;DHT22;17114;52.314;8.910;2023-04-24T12:09:28;9.70;99.90
30308;DHT22;17114;52.314;8.910;2023-04-24T12:11:56;9.80;99.90
30308;DHT22;17114;52.314;8.910;2023-04-24T12:14:24;9.80;99.90
30308;DHT22;17114;52.314;8.910;2023-04-24T12:16:51;9.90;99.90
30308;DHT22;17114;52.314;8.910;2023-04-24T12:19:22;10.00;99.90
30308;DHT22;17114;52.314;8.910;2023-04-24T12:22:00;10.10;99.90
30308;DHT22;17114;52.314;8.910;2023-04-24T12:24:28;10.20;99.90
30308;DHT22;17114;52.314;8.910;2023-04-24T12:26:55;10.20;99.90
30308;DHT22;17114;52.314;8.910;2023-04-24T12:29:23;10.10;99.90
30308;DHT22;17114;52.314;8.910;2023-04-24T12:31:51;10.00;99.90
30308;DHT22;17114;52.314;8.910;2023-04-24T12:34:22;9.90;99.90
30308;DHT22;17114;52.314;8.910;2023-04-24T12:36:50;10.00;99.90
30308;DHT22;17114;52.314;8.910;2023-04-24T12:39:18;9.80;99.90
30308;DHT22;17114;52.314;8.910;2023-04-24T12:41:56;9.70;99.90
30308;DHT22;17114;52.314;8.910;2023-04-24T12:44:32;9.60;99.90
30308;DHT22;17114;52.314;8.910;2023-04-24T12:47:01;9.40;99.90
30308;DHT22;17114;52.314;8.910;2023-04-24T12:49:30;9.40;99.90
30308;DHT22;17114;52.314;8.910;2023-04-24T12:51:57;9.40;99.90
30308;DHT22;17114;52.314;8.910;2023-04-24T12:54:25;9.30;99.90
30308;DHT22;17114;52.314;8.910;2023-04-24T12:56:51;9.20;99.90
30308;DHT22;17114;52.314;8.910;2023-04-24T12:59:18;9.20;99.90
30308;DHT22;17114;52.314;8.910;2023-04-24T13:01:45;9.10;99.90
30308;DHT22;17114;52.314;8.910;2023-04-24T13:04:16;9.00;99.90
30308;DHT22;17114;52.314;8.910;2023-04-24T13:06:43;9.10;99.90
30308;DHT22;17114;52.314;8.910;2023-04-24T13:09:11;9.00;99.90
30308;DHT22;17114;52.314;8.910;2023-04-24T13:11:38;9.00;99.90
30308;DHT22;17114;52.314;8.910;2023-04-24T13:14:05;9.00;99.90
30308;DHT22;17114;52.314;8.910;2023-04-24T13:16:32;9.00;99.90
30308;DHT22;17114;52.314;8.910;2023-04-24T13:18:59;9.00;99.90
30308;DHT22;17114;52.314;8.910;2023-04-24T13:21:26;9.00;99.90
30308;DHT22;17114;52.314;8.910;2023-04-24T13:23:53;9.10;99.90
30308;DHT22;17114;52.314;8.910;2023-04-24T13:26:20;9.10;99.90
30308;DHT22;17114;52.314;8.910;2023-04-24T13:28:48;9.10;99.90
30308;DHT22;17114;52.314;8.910;2023-04-24T13:31:15;9.10;99.90
30308;DHT22;17114;52.314;8.910;2023-04-24T13:33:42;9.00;99.90
30308;DHT22;17114;52.314;8.910;2023-04-24T13:36:10;8.90;99.90
30308;DHT22;17114;52.314;8.910;2023-04-24T13:38:36;8.90;99.90
30308;DHT22;17114;52.314;8.910;2023-04-24T13:41:03;8.90;99.90
30308;DHT22;17114;52.314;8.910;2023-04-24T13:43:30;8.80;99.90
30308;DHT22;17114;52.314;8.910;2023-04-24T13:45:57;8.90;99.90
30308;DHT22;17114;52.314;8.910;2023-04-24T13:48:26;8.90;99.90
30308;DHT22;17114;52.314;8.910;2023-04-24T13:50:53;8.90;99.90
30308;DHT22;17114;52.314;8.910;2023-04-24T13:53:20;8.90;99.90
30308;DHT22;17114;52.314;8.910;2023-04-24T13:55:47;8.90;99.90
30308;DHT22;17114;52.314;8.910;2023-04-24T13:58:14;9.00;99.90
30308;DHT22;17114;52.314;8.910;2023-04-24T14:00:41;9.10;99.90
30308;DHT22;17114;52.314;8.910;2023-04-24T14:03:08;9.10;99.90
30308;DHT22;17114;52.314;8.910;2023-04-24T14:05:36;9.20;99.90
30308;DHT22;17114;52.314;8.910;2023-04-24T14:08:04;9.30;99.90
30308;DHT22;17114;52.314;8.910;2023-04-24T14:10:32;9.30;99.90
30308;DHT22;17114;52.314;8.910;2023-04-24T14:12:59;9.20;99.90
30308;DHT22;17114;52.314;8.910;2023-04-24T14:15:26;9.10;99.90
30308;DHT22;17114;52.314;8.910;2023-04-24T14:17:53;9.00;99.90
30308;DHT22;17114;52.314;8.910;2023-04-24T14:20:20;9.00;99.90
30308;DHT22;17114;52.314;8.910;2023-04-24T14:22:48;8.90;99.90
30308;DHT22;17114;52.314;8.910;2023-04-24T14:25:15;8.90;99.90
30308;DHT22;17114;52.314;8.910;2023-04-24T14:27:42;9.00;99.90
30308;DHT22;17114;52.314;8.910;2023-04-24T14:30:09;9.00;99.90
30308;DHT22;17114;52.314;8.910;2023-04-24T14:32:37;9.00;99.90
30308;DHT22;17114;52.314;8.910;2023-04-24T14:35:05;9.10;99.90
30308;DHT22;17114;52.314;8.910;2023-04-24T14:37:32;9.20;99.90
30308;DHT22;17114;52.314;8.910;2023-04-24T14:39:59;9.20;99.90
30308;DHT22;17114;52.314;8.910;2023-04-24T14:42:32;9.30;99.90
30308;DHT22;17114;52.314;8.910;2023-04-24T14:44:59;9.30;99.90
30308;DHT22;17114;52.314;8.910;2023-04-24T14:47:26;9.50;99.90
30308;DHT22;17114;52.314;8.910;2023-04-24T14:49:53;9.50;99.90
30308;DHT22;17114;52.314;8.910;2023-04-24T14:52:21;9.60;99.90
30308;DHT22;17114;52.314;8.910;2023-04-24T14:54:47;9.70;99.90
30308;DHT22;17114;52.314;8.910;2023-04-24T14:57:14;9.60;99.90
30308;DHT22;17114;52.314;8.910;2023-04-24T14:59:42;9.60;99.90
30308;DHT22;17114;52.314;8.910;2023-04-24T15:02:09;9.70;99.90
30308;DHT22;17114;52.314;8.910;2023-04-24T15:04:40;9.70;99.90
30308;DHT22;17114;52.314;8.910;2023-04-24T15:07:08;9.70;99.90
30308;DHT22;17114;52.314;8.910;2023-04-24T15:09:35;9.70;99.90
30308;DHT22;17114;52.314;8.910;2023-04-24T15:12:02;9.70;99.90
30308;DHT22;17114;52.314;8.910;2023-04-24T15:14:29;9.80;99.90
30308;DHT22;17114;52.314;8.910;2023-04-24T15:16:56;9.80;99.90
30308;DHT22;17114;52.314;8.910;2023-04-24T15:19:23;9.70;99.90
30308;DHT22;17114;52.314;8.910;2023-04-24T15:21:50;9.70;99.90
30308;DHT22;17114;52.314;8.910;2023-04-24T15:24:17;9.70;99.90
30308;DHT22;17114;52.314;8.910;2023-04-24T15:26:44;9.70;99.90
30308;DHT22;17114;52.314;8.910;2023-04-24T15:29:11;9.60;99.90
30308;DHT22;17114;52.314;8.910;2023-04-24T15:31:38;9.60;99.90
30308;DHT22;17114;52.314;8.910;2023-04-24T15:34:06;9.40;99.90
30308;DHT22;17114;52.314;8.910;2023-04-24T15:36:33;9.30;99.90
30308;DHT22;17114;52.314;8.910;2023-04-24T15:39:02;9.20;99.90
30308;DHT22;17114;52.314;8.910;2023-04-24T15:41:32;9.20;99.90
30308;DHT22;17114;52.314;8.910;2023-04-24T15:43:58;9.20;99.90